createdAt,value
2023-03-21T00:00:11.320Z,5.18
2023-03-21T00:02:39.029Z,5.50
2023-03-21T00:05:15.558Z,5.55
2023-03-21T00:07:43.990Z,5.53
2023-03-21T00:10:18.142Z,5.60
2023-03-21T00:12:50.325Z,5.20
2023-03-21T00:15:20.560Z,5.65
2023-03-21T00:17:50.839Z,5.45
2023-03-21T00:20:20.738Z,5.60
2023-03-21T00:22:48.440Z,5.90
2023-03-21T00:25:16.168Z,5.32
2023-03-21T00:28:01.097Z,5.25
2023-03-21T00:30:31.563Z,5.15
2023-03-21T00:33:03.562Z,5.22
2023-03-21T00:35:57.996Z,5.25
2023-03-21T00:38:24.220Z,4.53
2023-03-21T00:40:52.558Z,3.30
2023-03-21T00:43:23.480Z,5.38
2023-03-21T00:45:52.610Z,4.35
2023-03-21T00:48:20.755Z,4.90
2023-03-21T00:50:52.393Z,4.13
2023-03-21T00:53:20.065Z,4.78
2023-03-21T00:55:47.805Z,4.60
2023-03-21T00:58:15.548Z,4.40
2023-03-21T01:00:43.787Z,4.47
2023-03-21T01:03:23.689Z,4.90
2023-03-21T01:06:06.995Z,4.90
2023-03-21T01:08:50.589Z,4.80
2023-03-21T01:11:23.063Z,5.32
2023-03-21T01:13:56.272Z,4.68
2023-03-21T01:16:30.317Z,4.93
2023-03-21T01:18:58.373Z,4.72
2023-03-21T01:21:28.043Z,4.53
2023-03-21T01:23:55.865Z,3.70
2023-03-21T01:26:23.610Z,3.60
2023-03-21T01:28:51.498Z,3.40
2023-03-21T01:31:19.436Z,5.03
2023-03-21T01:33:47.918Z,3.53
2023-03-21T01:36:21.833Z,4.75
2023-03-21T01:38:52.171Z,5.47
2023-03-21T01:41:28.453Z,4.03
2023-03-21T01:44:01.656Z,5.57
2023-03-21T01:46:47.733Z,5.20
2023-03-21T01:49:27.080Z,4.82
2023-03-21T01:52:11.558Z,3.70
2023-03-21T01:54:42.970Z,3.72
2023-03-21T01:57:17.353Z,3.15
2023-03-21T01:59:49.980Z,3.70
2023-03-21T02:02:23.288Z,4.60
2023-03-21T02:04:55.937Z,4.38
2023-03-21T02:07:28.887Z,4.55
2023-03-21T02:09:59.759Z,4.65
2023-03-21T02:12:28.705Z,4.60
2023-03-21T02:14:57.145Z,3.70
2023-03-21T02:17:34.349Z,3.70
2023-03-21T02:20:37.230Z,3.67
2023-03-21T02:23:37.939Z,3.00
2023-03-21T02:26:45.079Z,3.40
2023-03-21T02:29:33.896Z,3.40
2023-03-21T02:32:22.603Z,3.45
2023-03-21T02:35:24.603Z,3.20
2023-03-21T02:38:00.894Z,3.47
2023-03-21T02:40:34.821Z,3.53
2023-03-21T02:43:09.338Z,3.45
2023-03-21T02:45:50.705Z,3.70
2023-03-21T02:48:31.207Z,3.13
2023-03-21T02:51:06.145Z,3.33
2023-03-21T02:53:39.624Z,3.50
2023-03-21T02:56:10.780Z,3.30
2023-03-21T02:58:41.017Z,3.70
2023-03-21T03:01:09.515Z,4.13
2023-03-21T03:03:39.441Z,3.78
2023-03-21T03:06:17.134Z,4.25
2023-03-21T03:09:02.604Z,4.03
2023-03-21T03:17:19.310Z,3.78
2023-03-21T03:20:15.463Z,3.85
2023-03-21T03:22:53.432Z,3.67
2023-03-21T03:25:41.528Z,3.65
2023-03-21T03:28:11.100Z,5.22
2023-03-21T03:30:45.036Z,5.30
2023-03-21T03:33:23.501Z,5.20
2023-03-21T03:36:04.359Z,4.30
2023-03-21T03:38:34.645Z,4.20
2023-03-21T03:41:10.332Z,4.07
2023-03-21T03:43:44.325Z,3.28
2023-03-21T03:46:18.001Z,3.90
2023-03-21T03:48:49.957Z,4.20
2023-03-21T03:51:22.501Z,4.00
2023-03-21T03:53:55.391Z,5.20
2023-03-21T03:56:25.414Z,4.25
2023-03-21T03:58:53.357Z,5.20
2023-03-21T04:01:22.105Z,5.43
2023-03-21T04:03:58.403Z,4.95
2023-03-21T04:06:32.330Z,5.32
2023-03-21T04:09:03.471Z,5.40
2023-03-21T04:11:34.553Z,5.00
2023-03-21T04:14:02.254Z,5.10
2023-03-21T04:16:32.818Z,4.90
2023-03-21T04:19:02.089Z,4.38
2023-03-21T04:21:29.982Z,4.10
2023-03-21T04:23:57.683Z,3.90
2023-03-21T04:26:25.601Z,3.20
2023-03-21T04:28:54.768Z,3.80
2023-03-21T04:31:26.422Z,3.70
2023-03-21T04:33:55.878Z,3.92
2023-03-21T04:36:27.403Z,4.32
2023-03-21T04:38:57.160Z,3.70
2023-03-21T04:41:24.942Z,4.13
2023-03-21T04:43:54.602Z,4.18
2023-03-21T04:46:22.404Z,4.60
2023-03-21T04:48:50.498Z,4.90
2023-03-21T04:51:18.234Z,4.40
2023-03-21T04:53:49.335Z,3.13
2023-03-21T04:56:17.742Z,3.92
2023-03-21T04:58:45.793Z,3.72
2023-03-21T05:01:14.935Z,3.88
2023-03-21T05:03:42.669Z,3.55
2023-03-21T05:06:11.337Z,3.30
2023-03-21T05:08:39.135Z,3.70
2023-03-21T05:11:07.232Z,4.30
2023-03-21T05:13:34.921Z,3.92
2023-03-21T05:16:02.605Z,3.30
2023-03-21T05:18:34.977Z,4.15
2023-03-21T05:21:04.168Z,4.57
2023-03-21T05:23:31.886Z,3.97
2023-03-21T05:25:59.616Z,3.65
2023-03-21T05:28:31.528Z,3.92
2023-03-21T05:30:59.356Z,4.07
2023-03-21T05:33:27.102Z,4.25
2023-03-21T05:35:56.310Z,4.07
2023-03-21T05:38:24.122Z,4.20
2023-03-21T05:40:53.014Z,4.70
2023-03-21T05:43:20.798Z,3.58
2023-03-21T05:45:48.970Z,4.10
2023-03-21T05:48:16.722Z,4.38
2023-03-21T05:50:44.457Z,5.00
2023-03-21T05:53:13.614Z,4.38
2023-03-21T05:55:41.271Z,4.18
2023-03-21T05:58:08.984Z,4.63
2023-03-21T06:00:36.654Z,4.90
2023-03-21T06:03:04.539Z,4.47
2023-03-21T06:05:32.224Z,4.65
2023-03-21T06:08:00.000Z,5.65
2023-03-21T06:10:29.090Z,5.07
2023-03-21T06:12:56.783Z,5.20
2023-03-21T06:15:25.268Z,5.55
2023-03-21T06:17:52.946Z,4.97
2023-03-21T06:20:20.910Z,5.47
2023-03-21T06:22:48.633Z,5.60
2023-03-21T06:25:16.759Z,5.28
2023-03-21T06:27:45.848Z,5.20
2023-03-21T06:30:14.533Z,5.32
2023-03-21T06:32:42.280Z,5.60
2023-03-21T06:35:10.471Z,5.05
2023-03-21T06:37:38.445Z,5.80
2023-03-21T06:40:09.658Z,11.65
2023-03-21T06:42:37.415Z,6.78
2023-03-21T06:45:09.813Z,8.48
2023-03-21T06:47:37.530Z,5.45
2023-03-21T06:50:08.378Z,5.35
2023-03-21T06:52:36.109Z,5.45
2023-03-21T06:55:03.859Z,5.43
2023-03-21T06:57:31.555Z,5.20
2023-03-21T06:59:59.342Z,5.25
2023-03-21T07:02:28.428Z,5.88
2023-03-21T07:04:56.816Z,5.43
2023-03-21T07:07:27.142Z,5.53
2023-03-21T07:09:54.778Z,5.40
2023-03-21T07:12:24.255Z,5.60
2023-03-21T07:14:52.157Z,5.85
2023-03-21T07:17:19.883Z,6.15
2023-03-21T07:19:52.077Z,6.18
2023-03-21T07:22:20.531Z,5.57
2023-03-21T07:24:55.840Z,5.60
2023-03-21T07:27:30.288Z,5.28
2023-03-21T07:29:58.017Z,5.40
2023-03-21T07:32:30.103Z,5.65
2023-03-21T07:35:01.563Z,5.72
2023-03-21T07:37:29.538Z,6.38
2023-03-21T07:39:57.438Z,6.20
2023-03-21T07:42:25.308Z,5.85
2023-03-21T07:44:54.997Z,6.50
2023-03-21T07:47:22.745Z,5.80
2023-03-21T07:49:51.196Z,5.80
2023-03-21T07:52:20.314Z,5.78
2023-03-21T07:54:48.020Z,6.03
2023-03-21T07:57:15.788Z,6.07
2023-03-21T07:59:43.490Z,6.00
2023-03-21T08:02:14.478Z,6.05
2023-03-21T08:04:42.164Z,5.60
2023-03-21T08:07:10.318Z,5.88
2023-03-21T08:09:39.466Z,5.90
2023-03-21T08:12:08.537Z,6.10
2023-03-21T08:14:37.006Z,5.82
2023-03-21T08:17:05.347Z,5.88
2023-03-21T08:19:33.229Z,6.30
2023-03-21T08:22:01.329Z,5.55
2023-03-21T08:24:30.117Z,6.07
2023-03-21T08:26:59.244Z,6.13
2023-03-21T08:29:27.106Z,6.50
2023-03-21T08:31:54.919Z,5.63
2023-03-21T08:34:23.153Z,6.45
2023-03-21T08:36:51.135Z,6.32
2023-03-21T08:39:19.354Z,6.30
2023-03-21T08:41:47.126Z,6.32
2023-03-21T08:44:17.088Z,5.57
2023-03-21T08:46:45.009Z,5.85
2023-03-21T08:49:12.877Z,6.30
2023-03-21T08:51:41.216Z,6.00
2023-03-21T08:54:09.118Z,5.82
2023-03-21T08:56:37.560Z,5.40
2023-03-21T08:59:05.322Z,5.22
2023-03-21T09:01:34.658Z,5.30
2023-03-21T09:04:02.560Z,6.30
2023-03-21T09:06:33.713Z,5.30
2023-03-21T09:09:01.893Z,5.25
2023-03-21T09:11:29.764Z,5.32
2023-03-21T09:13:57.562Z,4.95
2023-03-21T09:16:25.779Z,4.60
2023-03-21T09:18:56.898Z,4.18
2023-03-21T09:21:25.000Z,4.00
2023-03-21T09:23:55.352Z,4.40
2023-03-21T09:26:25.046Z,3.92
2023-03-21T09:28:53.243Z,3.42
2023-03-21T09:31:23.088Z,3.40
2023-03-21T09:33:51.655Z,3.60
2023-03-21T09:36:25.091Z,3.40
2023-03-21T09:38:53.308Z,3.58
2023-03-21T09:41:52.979Z,3.17
2023-03-21T09:44:32.998Z,3.83
2023-03-21T09:47:07.589Z,3.58
2023-03-21T09:49:40.015Z,2.90
2023-03-21T09:52:19.066Z,3.50
2023-03-21T09:54:47.115Z,2.95
2023-03-21T09:57:22.465Z,3.80
2023-03-21T09:59:53.737Z,3.97
2023-03-21T10:02:36.087Z,3.00
2023-03-21T10:05:11.993Z,3.42
2023-03-21T10:07:47.683Z,2.63
2023-03-21T10:10:18.518Z,2.75
2023-03-21T10:12:48.377Z,3.25
2023-03-21T10:15:19.102Z,2.95
2023-03-21T10:17:52.771Z,3.05
2023-03-21T10:20:23.421Z,3.03
2023-03-21T10:22:55.630Z,2.80
2023-03-21T10:25:29.221Z,2.90
2023-03-21T10:27:57.081Z,3.00
2023-03-21T10:30:33.236Z,3.05
2023-03-21T10:33:05.590Z,3.47
2023-03-21T10:35:37.286Z,3.40
2023-03-21T10:38:11.494Z,3.10
2023-03-21T10:40:39.234Z,3.13
2023-03-21T10:43:33.971Z,3.85
2023-03-21T10:46:07.688Z,3.05
2023-03-21T10:48:37.851Z,4.32
2023-03-21T10:51:09.277Z,4.30
2023-03-21T10:53:41.220Z,3.67
2023-03-21T10:56:11.120Z,3.70
2023-03-21T10:58:43.395Z,3.90
2023-03-21T11:01:15.814Z,3.22
2023-03-21T11:03:46.856Z,3.45
2023-03-21T11:06:23.595Z,3.58
2023-03-21T11:08:57.712Z,4.15
2023-03-21T11:11:28.242Z,3.90
2023-03-21T11:14:06.680Z,3.63
2023-03-21T11:16:40.828Z,3.83
2023-03-21T11:19:17.597Z,3.05
2023-03-21T11:21:46.265Z,3.45
2023-03-21T11:24:18.374Z,2.97
2023-03-21T11:26:48.836Z,3.55
2023-03-21T11:29:30.370Z,3.35
2023-03-21T11:32:02.690Z,3.35
2023-03-21T11:34:40.341Z,3.17
2023-03-21T11:37:20.812Z,2.70
2023-03-21T11:39:56.496Z,2.60
2023-03-21T11:42:31.237Z,2.92
2023-03-21T11:45:03.181Z,2.53
2023-03-21T11:47:31.666Z,3.10
2023-03-21T11:50:04.878Z,2.90
2023-03-21T11:52:39.729Z,3.20
2023-03-21T11:55:23.271Z,3.33
2023-03-21T11:58:13.983Z,2.58
2023-03-21T12:00:49.894Z,2.80
2023-03-21T12:03:48.937Z,3.15
2023-03-21T12:06:25.203Z,2.28
2023-03-21T12:09:07.094Z,2.70
2023-03-21T12:11:46.675Z,2.78
2023-03-21T12:14:23.722Z,2.58
2023-03-21T12:17:06.326Z,2.30
2023-03-21T12:20:08.905Z,2.95
2023-03-21T12:22:45.704Z,2.50
2023-03-21T12:25:18.471Z,2.50
2023-03-21T12:27:57.036Z,2.63
2023-03-21T12:30:34.187Z,2.55
2023-03-21T12:33:14.919Z,1.98
2023-03-21T12:35:54.296Z,2.08
2023-03-21T12:38:27.107Z,1.90
2023-03-21T12:41:11.631Z,1.98
2023-03-21T12:43:47.630Z,2.00
2023-03-21T12:46:23.060Z,1.67
2023-03-21T12:48:53.729Z,1.85
2023-03-21T12:51:26.667Z,1.80
2023-03-21T12:54:01.873Z,1.60
2023-03-21T12:56:32.840Z,1.50
2023-03-21T12:59:13.538Z,1.63
2023-03-21T13:01:44.027Z,1.75
2023-03-21T13:04:32.646Z,1.60
2023-03-21T13:07:03.595Z,1.40
2023-03-21T13:09:37.961Z,1.20
2023-03-21T13:12:20.611Z,1.10
2023-03-21T13:15:00.790Z,1.17
2023-03-21T13:17:36.597Z,1.50
2023-03-21T13:20:19.198Z,1.30
2023-03-21T13:22:47.468Z,1.40
2023-03-21T13:25:20.106Z,1.30
2023-03-21T13:27:54.124Z,1.40
2023-03-21T13:30:26.477Z,1.50
2023-03-21T13:33:06.476Z,1.25
2023-03-21T13:35:38.471Z,1.55
2023-03-21T13:38:16.406Z,1.35
2023-03-21T13:40:48.747Z,1.40
2023-03-21T13:43:35.881Z,1.70
2023-03-21T13:46:10.061Z,1.40
2023-03-21T13:48:59.069Z,1.75
2023-03-21T13:51:43.953Z,1.63
2023-03-21T13:54:20.645Z,1.52
2023-03-21T13:56:54.068Z,1.77
2023-03-21T13:59:38.498Z,2.15
2023-03-21T14:02:31.028Z,2.28
2023-03-21T14:05:05.712Z,2.47
2023-03-21T14:07:36.683Z,2.30
2023-03-21T14:10:09.593Z,2.50
2023-03-21T14:12:40.719Z,2.60
2023-03-21T14:15:17.164Z,2.70
2023-03-21T14:17:54.373Z,2.63
2023-03-21T14:20:25.696Z,2.13
2023-03-21T14:22:54.094Z,2.30
2023-03-21T14:25:27.238Z,3.13
2023-03-21T14:27:59.582Z,2.22
2023-03-21T14:30:30.907Z,2.30
2023-03-21T14:33:04.547Z,2.10
2023-03-21T14:35:34.048Z,2.58
2023-03-21T14:38:04.532Z,2.47
2023-03-21T14:40:32.647Z,2.58
2023-03-21T14:43:06.243Z,2.60
2023-03-21T14:45:37.145Z,2.10
2023-03-21T14:48:09.714Z,2.60
2023-03-21T14:50:41.887Z,2.22
2023-03-21T14:53:17.519Z,2.17
2023-03-21T14:58:16.866Z,2.22
2023-03-21T15:00:45.021Z,2.90
2023-03-21T15:03:16.213Z,2.97
2023-03-21T15:05:45.009Z,2.13
2023-03-21T15:08:16.762Z,2.67
2023-03-21T15:11:06.344Z,2.22
2023-03-21T15:13:37.476Z,2.75
2023-03-21T15:16:06.341Z,2.28
2023-03-21T15:18:38.221Z,2.15
2023-03-21T15:21:11.088Z,2.45
2023-03-21T15:23:42.684Z,2.75
2023-03-21T15:26:15.884Z,2.60
2023-03-21T15:28:46.544Z,2.75
2023-03-21T15:31:19.830Z,2.67
2023-03-21T15:34:38.423Z,2.88
2023-03-21T15:38:23.822Z,3.50
2023-03-21T15:44:53.814Z,3.70
2023-03-21T15:47:55.009Z,3.45
2023-03-21T15:51:35.576Z,2.88
2023-03-21T16:05:27.131Z,2.72
2023-03-21T16:08:47.768Z,3.10
2023-03-21T16:15:33.647Z,3.10
2023-03-21T16:18:17.528Z,14.15
2023-03-21T16:20:56.762Z,3.60
2023-03-21T16:27:26.801Z,4.03
2023-03-21T16:30:46.677Z,3.42
2023-03-21T16:33:56.877Z,4.05
2023-03-21T16:36:37.542Z,3.70
2023-03-21T16:39:26.714Z,3.92
2023-03-21T16:41:57.169Z,4.55
2023-03-21T16:44:29.249Z,3.78
2023-03-21T16:46:56.971Z,3.72
2023-03-21T16:49:26.757Z,3.92
2023-03-21T16:51:55.955Z,3.20
2023-03-21T16:54:27.035Z,2.95
2023-03-21T16:57:00.911Z,3.47
2023-03-21T16:59:33.088Z,3.30
2023-03-21T17:02:34.422Z,3.20
2023-03-21T17:05:16.031Z,2.20
2023-03-21T17:07:47.136Z,2.00
2023-03-21T17:10:23.861Z,2.20
2023-03-21T17:12:51.680Z,1.60
2023-03-21T17:15:26.505Z,2.08
2023-03-21T17:18:11.665Z,2.03
2023-03-21T17:20:44.374Z,2.17
2023-03-21T17:23:19.727Z,1.65
2023-03-21T17:25:53.554Z,1.60
2023-03-21T17:29:07.287Z,1.40
2023-03-21T17:31:42.540Z,1.67
2023-03-21T17:34:16.175Z,1.55
2023-03-21T17:37:02.695Z,1.65
2023-03-21T17:39:34.758Z,1.67
2023-03-21T17:42:12.868Z,1.42
2023-03-21T17:44:40.647Z,1.65
2023-03-21T17:47:18.523Z,1.70
2023-03-21T17:50:07.127Z,1.58
2023-03-21T17:55:19.911Z,1.58
2023-03-21T17:57:48.610Z,1.88
2023-03-21T18:00:20.853Z,1.63
2023-03-21T18:02:50.727Z,1.52
2023-03-21T18:05:18.767Z,1.70
2023-03-21T18:10:37.811Z,1.98
2023-03-21T18:13:05.765Z,1.92
2023-03-21T18:15:34.823Z,1.77
2023-03-21T18:18:06.753Z,1.67
2023-03-21T18:20:54.537Z,1.60
2023-03-21T18:23:22.726Z,1.80
2023-03-21T18:25:52.424Z,1.40
2023-03-21T18:28:21.496Z,1.60
2023-03-21T18:31:09.553Z,1.83
2023-03-21T18:33:45.040Z,1.50
2023-03-21T18:36:36.799Z,1.70
2023-03-21T18:39:30.341Z,1.50
2023-03-21T18:43:32.795Z,1.35
2023-03-21T18:45:40.494Z,2.25
2023-03-21T18:48:16.176Z,2.17
2023-03-21T18:53:30.003Z,1.65
2023-03-21T18:56:00.760Z,1.73
2023-03-21T18:59:32.491Z,1.80
2023-03-21T19:02:18.671Z,1.70
2023-03-21T19:07:49.683Z,2.17
2023-03-21T19:10:38.069Z,1.80
2023-03-21T19:13:07.058Z,2.20
2023-03-21T19:21:01.288Z,2.30
2023-03-21T19:23:40.793Z,2.50
2023-03-21T19:26:18.055Z,2.50
2023-03-21T19:28:46.040Z,2.30
2023-03-21T19:31:13.898Z,1.75
2023-03-21T19:33:41.580Z,2.15
2023-03-21T19:36:20.914Z,1.90
2023-03-21T19:38:51.737Z,1.60
2023-03-21T19:41:20.420Z,1.90
2023-03-21T19:43:54.842Z,1.73
2023-03-21T19:46:25.599Z,2.03
2023-03-21T19:48:56.594Z,2.00
2023-03-21T19:51:29.493Z,2.22
2023-03-21T19:53:59.101Z,2.00
2023-03-21T19:56:27.887Z,1.60
2023-03-21T19:58:56.002Z,1.92
2023-03-21T20:01:25.053Z,1.90
2023-03-21T20:03:53.007Z,2.08
2023-03-21T20:06:22.539Z,2.03
2023-03-21T20:09:27.298Z,1.83
2023-03-21T20:11:40.160Z,2.20
2023-03-21T20:14:07.835Z,1.90
2023-03-21T20:16:36.971Z,2.40
2023-03-21T20:19:05.909Z,2.45
2023-03-21T20:21:44.447Z,2.25
2023-03-21T20:24:16.790Z,2.42
2023-03-21T20:26:47.096Z,2.10
2023-03-21T20:32:02.503Z,1.95
2023-03-21T20:34:30.751Z,2.40
2023-03-21T20:36:59.152Z,2.30
2023-03-21T20:39:29.487Z,2.28
2023-03-21T20:41:59.660Z,2.42
2023-03-21T20:44:51.893Z,3.03
2023-03-21T20:47:15.561Z,2.63
2023-03-21T20:49:43.229Z,2.58
2023-03-21T20:54:58.797Z,2.60
2023-03-21T20:57:28.344Z,3.17
2023-03-21T20:59:56.308Z,3.42
2023-03-21T21:02:24.809Z,3.20
2023-03-21T21:05:23.738Z,3.20
2023-03-21T21:07:42.387Z,3.17
2023-03-21T21:10:11.778Z,4.05
2023-03-21T21:12:45.020Z,3.80
2023-03-21T21:15:16.615Z,3.10
2023-03-21T21:20:33.643Z,3.17
2023-03-21T21:23:01.535Z,3.15
2023-03-21T21:25:30.554Z,5.00
2023-03-21T21:28:01.570Z,3.95
2023-03-21T21:30:30.333Z,3.30
2023-03-21T21:32:59.673Z,3.75
2023-03-21T21:35:27.554Z,4.03
2023-03-21T21:37:55.973Z,4.00
2023-03-21T21:40:24.200Z,3.92
2023-03-21T21:42:52.070Z,4.05
2023-03-21T21:45:21.434Z,4.93
2023-03-21T21:47:49.221Z,5.18
2023-03-21T21:50:16.945Z,5.13
2023-03-21T21:52:52.577Z,5.18
2023-03-21T21:55:20.572Z,5.22
2023-03-21T21:57:50.648Z,4.80
2023-03-21T22:00:21.605Z,5.50
2023-03-21T22:02:49.382Z,4.80
2023-03-21T22:05:18.873Z,5.10
2023-03-21T22:07:46.685Z,5.32
2023-03-21T22:10:14.962Z,5.03
2023-03-21T22:12:42.724Z,4.57
2023-03-21T22:15:11.975Z,4.47
2023-03-21T22:17:42.042Z,4.57
2023-03-21T22:20:12.664Z,4.75
2023-03-21T22:22:40.689Z,4.25
2023-03-21T22:25:11.822Z,4.13
2023-03-21T22:27:39.543Z,3.95
2023-03-21T22:30:09.597Z,3.95
2023-03-21T22:32:39.366Z,4.53
2023-03-21T22:35:09.837Z,4.43
2023-03-21T22:37:40.058Z,4.50
2023-03-21T22:40:09.874Z,4.35
2023-03-21T22:42:39.644Z,4.60
2023-03-21T22:45:09.650Z,3.90
2023-03-21T22:47:37.483Z,3.95
2023-03-21T22:50:07.412Z,4.32
2023-03-21T22:52:36.551Z,4.07
2023-03-21T23:02:23.561Z,3.78
2023-03-21T23:04:51.269Z,3.90
2023-03-21T23:07:19.237Z,3.83
2023-03-21T23:09:46.951Z,3.75
2023-03-21T23:12:14.925Z,4.82
2023-03-21T23:14:42.626Z,4.72
2023-03-21T23:17:12.461Z,5.03
2023-03-21T23:19:41.203Z,4.60
2023-03-21T23:22:09.465Z,4.85
2023-03-21T23:24:37.184Z,5.03
2023-03-21T23:27:05.146Z,4.88
2023-03-21T23:29:32.930Z,5.30
2023-03-21T23:32:00.888Z,5.22
2023-03-21T23:34:30.327Z,4.82
2023-03-21T23:36:58.330Z,4.55
2023-03-21T23:39:26.468Z,5.07
2023-03-21T23:41:54.151Z,3.97
2023-03-21T23:44:21.835Z,4.43
2023-03-21T23:46:49.534Z,4.30
2023-03-21T23:49:17.332Z,3.97
2023-03-21T23:51:47.065Z,4.05
2023-03-21T23:54:14.905Z,5.38
2023-03-21T23:56:43.116Z,5.90
2023-03-21T23:59:10.857Z,4.10
